Time;durP1;ratioP1;P1;durP2;ratioP2;P2;SDS_P1;SDS_P2;PMS_P1;PMS_P2;Temp;Humidity;BMP_temperature;BMP_pressure;BME280_temperature;BME280_humidity;BME280_pressure;Samples;Min_cycle;Max_cycle;Signal;HPM_P1;HPM_P2
2021/09/14 00:00:42;;;;;;;5.30;3.40;;;16.10;99.90;;;;;;5037384;28;20196;-81
2021/09/14 00:03:08;;;;;;;4.90;3.00;;;16.10;99.90;;;;;;5039380;28;20188;-80
2021/09/14 00:05:33;;;;;;;4.67;2.90;;;16.10;99.90;;;;;;5021860;28;20197;-81
2021/09/14 00:07:59;;;;;;;5.33;3.03;;;16.10;99.90;;;;;;5035916;28;20178;-82
2021/09/14 00:10:25;;;;;;;9.83;3.00;;;16.10;99.90;;;;;;5035103;28;20178;-82
2021/09/14 00:12:50;;;;;;;4.90;3.50;;;16.00;99.90;;;;;;5033707;28;20177;-82
2021/09/14 00:15:16;;;;;;;4.80;3.13;;;16.10;99.90;;;;;;5034829;28;20560;-80
2021/09/14 00:17:42;;;;;;;4.50;2.80;;;16.10;99.90;;;;;;5034895;28;20355;-81
2021/09/14 00:20:08;;;;;;;4.77;2.50;;;16.10;99.90;;;;;;5017940;28;20662;-81
2021/09/14 00:22:33;;;;;;;4.63;3.27;;;16.10;99.90;;;;;;5035390;28;20236;-81
2021/09/14 00:24:59;;;;;;;3.97;2.87;;;16.00;99.90;;;;;;5034119;28;20432;-81
2021/09/14 00:27:25;;;;;;;3.97;2.70;;;16.00;99.90;;;;;;5034051;28;20210;-81
2021/09/14 00:29:50;;;;;;;2.87;2.23;;;15.90;99.90;;;;;;5033796;28;20181;-81
2021/09/14 00:32:16;;;;;;;5.70;3.60;;;16.00;99.90;;;;;;5034795;28;20177;-81
2021/09/14 00:34:42;;;;;;;4.07;2.60;;;16.00;99.90;;;;;;5033337;28;20280;-81
2021/09/14 00:37:07;;;;;;;3.87;3.03;;;16.00;99.90;;;;;;5034603;28;20704;-81
2021/09/14 00:39:33;;;;;;;4.40;2.90;;;16.00;99.90;;;;;;5017646;28;20451;-81
2021/09/14 00:41:59;;;;;;;5.87;3.53;;;16.00;99.90;;;;;;5034623;28;20173;-81
2021/09/14 00:44:24;;;;;;;5.63;3.20;;;16.00;99.90;;;;;;5032968;28;20640;-81
2021/09/14 00:46:50;;;;;;;4.90;3.13;;;16.10;99.90;;;;;;5033128;28;20660;-81
2021/09/14 00:49:15;;;;;;;3.53;2.43;;;16.00;99.90;;;;;;5033150;28;20319;-80
2021/09/14 00:51:41;;;;;;;4.83;3.47;;;15.90;99.90;;;;;;5034586;28;20803;-81
2021/09/14 00:54:15;;;;;;;3.30;2.70;;;16.00;99.90;;;;;;5034706;28;20185;-81
2021/09/14 00:56:41;;;;;;;4.73;3.13;;;16.00;99.90;;;;;;5034518;28;20877;-80
2021/09/14 00:59:08;;;;;;;3.67;3.00;;;16.00;99.90;;;;;;5033238;28;20483;-81
2021/09/14 01:01:33;;;;;;;4.00;2.90;;;16.00;99.90;;;;;;5034657;28;20458;-81
2021/09/14 01:03:59;;;;;;;3.40;2.90;;;16.00;99.90;;;;;;5033648;28;20911;-81
2021/09/14 01:06:25;;;;;;;5.00;2.90;;;16.00;99.90;;;;;;5033495;28;20609;-80
2021/09/14 01:08:51;;;;;;;4.97;3.00;;;15.90;99.90;;;;;;5035047;28;20185;-81
2021/09/14 01:11:17;;;;;;;4.33;2.70;;;15.90;99.90;;;;;;5035027;28;20272;-81
2021/09/14 01:13:43;;;;;;;8.07;4.00;;;15.90;99.90;;;;;;5034389;28;20420;-81
2021/09/14 01:16:11;;;;;;;4.77;3.23;;;15.90;99.90;;;;;;5034724;28;20605;-81
2021/09/14 01:18:37;;;;;;;4.30;3.50;;;15.90;99.90;;;;;;5034073;28;20467;-81
2021/09/14 01:21:03;;;;;;;4.20;3.10;;;15.90;99.90;;;;;;5032687;28;20418;-81
2021/09/14 01:23:29;;;;;;;5.30;2.80;;;15.80;99.90;;;;;;5033964;28;20422;-81
2021/09/14 01:25:55;;;;;;;4.23;2.67;;;15.70;99.90;;;;;;5033001;28;20442;-81
2021/09/14 01:28:20;;;;;;;6.30;3.53;;;15.80;99.90;;;;;;5032851;28;20541;-81
2021/09/14 01:30:47;;;;;;;5.10;3.37;;;15.80;99.90;;;;;;5034241;28;20591;-81
2021/09/14 01:33:15;;;;;;;6.67;3.97;;;15.70;99.90;;;;;;5033960;28;20173;-81
2021/09/14 01:35:42;;;;;;;4.93;3.43;;;15.80;99.90;;;;;;5032911;28;20438;-81
2021/09/14 01:38:11;;;;;;;6.80;3.90;;;15.80;99.90;;;;;;5033026;28;20626;-81
2021/09/14 01:40:37;;;;;;;4.77;4.10;;;15.70;99.90;;;;;;5033775;28;20469;-81
2021/09/14 01:43:07;;;;;;;7.17;4.10;;;15.70;99.90;;;;;;5033689;28;20411;-80
2021/09/14 01:45:35;;;;;;;4.40;3.30;;;15.70;99.90;;;;;;5032572;28;20733;-81
2021/09/14 01:48:01;;;;;;;4.87;3.40;;;15.70;99.90;;;;;;5034315;28;20433;-80
2021/09/14 01:50:26;;;;;;;7.20;3.30;;;15.60;99.90;;;;;;5034298;28;20420;-80
2021/09/14 01:52:53;;;;;;;5.70;3.60;;;15.70;99.90;;;;;;5032951;28;20192;-80
2021/09/14 01:55:19;;;;;;;7.53;3.50;;;15.60;99.90;;;;;;5034122;28;20197;-80
2021/09/14 01:57:45;;;;;;;12.83;3.47;;;15.60;99.90;;;;;;5033984;28;20459;-80
2021/09/14 02:00:25;;;;;;;6.07;3.77;;;15.60;99.90;;;;;;5034657;28;20771;-80
2021/09/14 02:03:20;;;;;;;4.47;3.80;;;15.60;99.90;;;;;;5032698;28;20173;-81
2021/09/14 02:33:43;;;;;;;5.33;3.10;;;15.60;99.90;;;;;;5033626;28;20562;-81
2021/09/14 02:58:37;;;;;;;5.60;3.53;;;15.10;99.90;;;;;;5033264;28;20436;-80
2021/09/14 02:59:36;;;;;;;7.10;3.53;;;15.20;99.90;;;;;;5037387;28;20533;-81
2021/09/14 03:02:03;;;;;;;4.33;3.33;;;15.20;99.90;;;;;;5019618;28;20419;-81
2021/09/14 03:04:29;;;;;;;4.20;3.10;;;15.30;99.90;;;;;;5036918;28;20545;-81
2021/09/14 03:06:55;;;;;;;4.50;3.27;;;15.20;99.90;;;;;;5035590;28;20424;-80
2021/09/14 03:09:20;;;;;;;4.23;3.33;;;15.30;99.90;;;;;;5037154;28;20406;-81
2021/09/14 03:11:46;;;;;;;4.60;3.70;;;15.30;99.90;;;;;;5037256;28;20188;-81
2021/09/14 03:14:12;;;;;;;6.20;3.67;;;15.20;99.90;;;;;;5036896;28;20325;-81
2021/09/14 03:16:38;;;;;;;4.73;2.90;;;15.10;99.90;;;;;;5037067;28;20191;-81
2021/09/14 03:19:04;;;;;;;5.17;3.57;;;15.20;99.90;;;;;;5036807;28;20488;-81
2021/09/14 03:21:30;;;;;;;5.33;4.10;;;15.20;99.90;;;;;;5039605;28;20423;-81
2021/09/14 03:23:56;;;;;;;6.27;3.47;;;15.20;99.90;;;;;;5035103;28;20418;-81
2021/09/14 03:26:22;;;;;;;5.20;3.70;;;15.20;99.90;;;;;;5019134;28;20447;-81
2021/09/14 03:28:48;;;;;;;7.57;4.20;;;15.20;99.90;;;;;;5036885;28;20183;-81
2021/09/14 03:31:16;;;;;;;6.23;3.60;;;15.20;99.90;;;;;;5036439;28;20183;-81
2021/09/14 03:33:43;;;;;;;4.37;3.13;;;15.10;99.90;;;;;;5036325;28;20410;-80
2021/09/14 03:36:09;;;;;;;8.77;4.20;;;15.00;99.90;;;;;;5036536;28;20441;-80
2021/09/14 03:38:34;;;;;;;3.90;2.90;;;15.10;99.90;;;;;;5035188;28;21057;-80
2021/09/14 03:41:00;;;;;;;5.83;3.47;;;15.20;99.90;;;;;;5017800;28;20450;-80
2021/09/14 03:43:25;;;;;;;7.73;3.90;;;15.20;99.90;;;;;;5035887;28;20277;-81
2021/09/14 03:45:51;;;;;;;4.50;3.30;;;15.10;99.90;;;;;;5036983;28;20195;-80
2021/09/14 03:48:17;;;;;;;5.30;4.07;;;15.10;99.90;;;;;;5035803;28;20176;-80
2021/09/14 03:50:43;;;;;;;6.23;3.87;;;15.10;99.90;;;;;;5037522;28;20422;-80
2021/09/14 03:53:09;;;;;;;4.47;3.50;;;15.10;99.90;;;;;;5038830;28;20266;-80
2021/09/14 03:55:34;;;;;;;6.20;4.80;;;15.00;99.90;;;;;;5039584;28;20825;-80
2021/09/14 03:58:00;;;;;;;7.43;3.83;;;15.00;99.90;;;;;;5037352;28;20469;-81
2021/09/14 04:00:26;;;;;;;5.47;3.27;;;15.00;99.90;;;;;;5036835;28;20206;-81
2021/09/14 04:03:16;;;;;;;6.50;4.10;;;15.00;99.90;;;;;;5037179;28;20178;-81
2021/09/14 04:06:07;;;;;;;6.50;4.13;;;15.00;99.90;;;;;;5036646;28;20814;-81
2021/09/14 04:11:18;;;;;;;6.57;3.73;;;15.00;99.90;;;;;;5035816;28;20416;-80
2021/09/14 04:13:43;;;;;;;5.60;3.97;;;15.00;99.90;;;;;;5036966;28;20405;-81
2021/09/14 04:16:09;;;;;;;5.07;3.43;;;14.90;99.90;;;;;;5036964;28;20456;-82
2021/09/14 04:18:35;;;;;;;5.90;3.73;;;14.70;99.90;;;;;;5036635;28;20683;-83
2021/09/14 04:21:00;;;;;;;5.10;3.07;;;14.70;99.90;;;;;;5019155;28;20224;-83
2021/09/14 04:23:26;;;;;;;3.73;2.93;;;14.70;99.90;;;;;;5034676;28;20636;-83
2021/09/14 04:25:51;;;;;;;5.40;3.80;;;14.80;99.90;;;;;;5035563;28;20199;-83
2021/09/14 04:28:17;;;;;;;6.17;3.50;;;14.80;99.90;;;;;;5036067;28;20181;-83
2021/09/14 04:30:42;;;;;;;6.33;4.00;;;14.70;99.90;;;;;;5034708;28;20179;-83
2021/09/14 04:33:08;;;;;;;8.60;4.27;;;14.70;99.90;;;;;;5005594;28;20212;-83
2021/09/14 04:35:37;;;;;;;4.80;3.50;;;14.80;99.90;;;;;;5014722;28;20221;-83
2021/09/14 04:38:03;;;;;;;4.97;2.90;;;14.80;99.90;;;;;;5017434;28;20492;-82
2021/09/14 04:40:30;;;;;;;4.63;3.47;;;14.80;99.90;;;;;;5036280;28;20426;-83
2021/09/14 04:42:56;;;;;;;4.90;3.57;;;14.80;99.90;;;;;;5015738;28;20552;-82
2021/09/14 04:45:21;;;;;;;6.33;3.40;;;14.90;99.90;;;;;;5015487;28;20469;-81
2021/09/14 04:47:47;;;;;;;8.93;3.47;;;14.80;99.90;;;;;;5017721;28;20202;-82
2021/09/14 04:50:13;;;;;;;11.63;4.00;;;14.80;99.90;;;;;;5000612;28;20564;-83
2021/09/14 04:52:38;;;;;;;4.57;3.27;;;14.90;99.90;;;;;;5035847;28;20195;-83
2021/09/14 04:55:04;;;;;;;5.80;2.97;;;14.80;99.90;;;;;;5036435;28;20292;-82
2021/09/14 04:57:30;;;;;;;5.18;3.67;;;14.40;99.90;;;;;;5033577;28;20213;-83
2021/09/14 04:59:56;;;;;;;4.97;3.73;;;14.60;99.90;;;;;;5033385;28;20189;-81
2021/09/14 05:02:21;;;;;;;4.03;3.33;;;14.70;99.90;;;;;;5032638;28;20237;-81
2021/09/14 05:04:47;;;;;;;6.73;3.70;;;14.80;99.90;;;;;;5032937;28;20274;-80
2021/09/14 05:07:13;;;;;;;4.73;3.90;;;14.90;99.90;;;;;;5039031;28;20173;-81
2021/09/14 05:09:38;;;;;;;10.40;3.73;;;14.70;99.90;;;;;;5045552;28;20179;-82
2021/09/14 05:12:04;;;;;;;6.73;3.40;;;14.40;99.90;;;;;;5036764;28;20173;-82
2021/09/14 05:14:29;;;;;;;8.70;4.17;;;14.20;99.90;;;;;;5020063;28;20228;-81
2021/09/14 05:16:58;;;;;;;4.20;2.80;;;13.90;99.90;;;;;;5036991;28;20288;-81
2021/09/14 05:22:30;;;;;;;4.85;2.80;;;13.70;99.90;;;;;;5025542;28;20220;-80
2021/09/14 05:24:56;;;;;;;4.63;3.33;;;13.70;99.90;;;;;;5050031;28;20571;-80
2021/09/14 05:27:22;;;;;;;4.17;3.43;;;13.70;99.90;;;;;;5040866;28;20253;-80
2021/09/14 05:29:47;;;;;;;12.20;4.40;;;13.70;99.90;;;;;;5037591;28;20181;-81
2021/09/14 05:32:17;;;;;;;5.07;3.63;;;13.80;99.90;;;;;;5021582;28;20185;-81
2021/09/14 05:34:45;;;;;;;6.00;3.70;;;13.90;99.90;;;;;;5040125;28;20209;-80
2021/09/14 05:37:11;;;;;;;6.10;3.88;;;14.20;99.90;;;;;;5039677;28;20665;-80
2021/09/14 05:39:37;;;;;;;6.67;4.37;;;14.20;99.90;;;;;;5035156;28;20241;-80
2021/09/14 05:42:02;;;;;;;6.10;3.87;;;14.20;99.90;;;;;;5039892;28;20196;-80
2021/09/14 05:44:28;;;;;;;5.00;3.40;;;14.20;99.90;;;;;;5038899;28;20654;-80
2021/09/14 05:46:53;;;;;;;6.30;3.97;;;14.20;99.90;;;;;;5055676;28;20172;-80
2021/09/14 05:49:22;;;;;;;6.57;4.27;;;14.20;99.90;;;;;;5057275;28;20172;-80
2021/09/14 05:51:48;;;;;;;6.47;4.35;;;14.30;99.90;;;;;;5060247;28;20189;-80
2021/09/14 05:54:13;;;;;;;6.57;4.67;;;14.40;99.90;;;;;;5056931;28;20189;-81
2021/09/14 05:56:39;;;;;;;6.93;3.90;;;14.60;99.90;;;;;;5057400;28;20229;-82
2021/09/14 05:59:04;;;;;;;6.37;4.70;;;14.60;99.90;;;;;;5056914;28;20202;-82
2021/09/14 06:01:33;;;;;;;7.73;4.20;;;14.80;99.90;;;;;;5025159;28;20182;-82
2021/09/14 06:03:58;;;;;;;7.80;4.35;;;14.80;99.90;;;;;;5043446;28;20241;-84
2021/09/14 06:06:24;;;;;;;6.00;3.60;;;14.70;99.90;;;;;;5041408;28;20201;-82
2021/09/14 06:08:52;;;;;;;6.10;3.10;;;14.60;99.90;;;;;;5037778;28;20183;-82
2021/09/14 06:11:18;;;;;;;8.20;4.75;;;14.60;99.90;;;;;;5038591;28;20177;-83
2021/09/14 06:13:43;;;;;;;5.93;4.10;;;14.70;99.90;;;;;;5048748;28;20483;-82
2021/09/14 06:16:09;;;;;;;6.83;4.50;;;14.60;99.90;;;;;;5049688;28;20209;-83
2021/09/14 06:18:35;;;;;;;8.73;4.53;;;14.70;99.90;;;;;;5058685;28;20204;-82
2021/09/14 06:21:03;;;;;;;6.70;3.60;;;14.70;99.90;;;;;;5038941;28;20236;-81
2021/09/14 06:23:29;;;;;;;7.60;4.15;;;14.90;99.90;;;;;;5037032;28;20174;-82
2021/09/14 06:25:55;;;;;;;8.97;3.23;;;15.20;99.90;;;;;;5022447;28;20194;-82
2021/09/14 06:28:21;;;;;;;5.03;3.60;;;15.40;99.90;;;;;;5002180;28;20190;-82
2021/09/14 06:30:47;;;;;;;5.53;3.60;;;15.90;99.90;;;;;;5039721;28;20404;-82
2021/09/14 06:33:13;;;;;;;6.47;3.20;;;15.90;99.90;;;;;;5043579;28;20189;-81
2021/09/14 06:35:38;;;;;;;4.17;3.20;;;16.00;99.90;;;;;;5042004;28;20311;-81
2021/09/14 06:38:04;;;;;;;5.20;2.90;;;16.10;99.90;;;;;;5031735;28;20478;-82
2021/09/14 06:40:32;;;;;;;10.70;3.30;;;16.40;99.90;;;;;;5057325;28;20193;-82
2021/09/14 06:42:57;;;;;;;4.27;3.07;;;16.50;99.90;;;;;;5041904;28;20242;-81
2021/09/14 06:45:23;;;;;;;4.40;3.17;;;16.70;99.90;;;;;;5060152;28;20443;-82
2021/09/14 06:47:49;;;;;;;9.13;3.70;;;16.40;99.90;;;;;;5026687;28;20660;-82
2021/09/14 06:50:15;;;;;;;8.87;4.97;;;16.50;99.90;;;;;;5059124;28;20173;-81
2021/09/14 06:52:40;;;;;;;6.43;3.70;;;16.60;99.90;;;;;;5042932;28;20183;-80
2021/09/14 06:55:07;;;;;;;7.07;2.97;;;16.60;99.90;;;;;;5041171;28;20456;-80
2021/09/14 06:57:33;;;;;;;7.50;3.73;;;16.60;99.90;;;;;;5040822;28;20243;-80
2021/09/14 06:59:59;;;;;;;5.20;2.87;;;16.40;99.90;;;;;;5039787;28;20423;-80
2021/09/14 07:02:25;;;;;;;3.30;2.53;;;16.40;99.90;;;;;;5042987;28;20173;-80
2021/09/14 07:04:51;;;;;;;3.40;2.63;;;16.60;99.90;;;;;;5040858;28;20432;-81
2021/09/14 07:07:17;;;;;;;2.93;2.30;;;16.90;99.90;;;;;;5042976;28;20165;-81
2021/09/14 07:09:43;;;;;;;6.43;2.60;;;17.00;99.90;;;;;;5025777;28;20496;-80
2021/09/14 07:12:10;;;;;;;3.43;2.40;;;17.10;99.90;;;;;;5043175;28;20181;-81
2021/09/14 07:14:37;;;;;;;2.50;2.30;;;17.30;99.90;;;;;;5042122;28;20268;-81
2021/09/14 07:17:02;;;;;;;2.70;2.20;;;17.40;99.90;;;;;;5044785;28;20421;-81
2021/09/14 07:19:28;;;;;;;3.87;3.07;;;17.60;99.90;;;;;;5041724;28;20466;-79
2021/09/14 07:21:53;;;;;;;3.50;2.17;;;17.60;99.90;;;;;;5040157;28;20939;-79
2021/09/14 07:24:19;;;;;;;4.30;2.10;;;17.50;99.90;;;;;;5027773;28;20250;-80
2021/09/14 07:26:45;;;;;;;4.00;2.27;;;17.70;99.90;;;;;;5053542;28;20178;-80
2021/09/14 07:29:10;;;;;;;4.10;2.80;;;17.70;99.90;;;;;;5050114;28;20232;-80
2021/09/14 07:31:40;;;;;;;2.87;1.97;;;17.70;99.90;;;;;;5030068;28;20273;-80
2021/09/14 07:34:05;;;;;;;3.30;2.60;;;17.80;99.90;;;;;;5049603;28;20180;-80
2021/09/14 07:36:31;;;;;;;3.10;2.50;;;17.80;99.90;;;;;;5047349;28;20521;-81
2021/09/14 07:38:57;;;;;;;3.30;2.50;;;17.80;99.90;;;;;;5063788;28;20638;-80
2021/09/14 07:41:40;;;;;;;3.40;2.40;;;17.80;99.90;;;;;;5066160;28;20173;-82
2021/09/14 07:44:06;;;;;;;4.10;2.50;;;17.80;99.90;;;;;;5051013;28;20258;-80
2021/09/14 07:46:31;;;;;;;7.60;2.97;;;17.60;99.90;;;;;;5060071;28;20435;-80
2021/09/14 07:48:57;;;;;;;3.77;2.30;;;17.60;99.90;;;;;;5047922;28;20210;-80
2021/09/14 07:51:24;;;;;;;3.20;2.60;;;17.50;99.90;;;;;;5051887;28;20427;-80
2021/09/14 07:53:50;;;;;;;3.00;2.30;;;17.50;99.90;;;;;;5060208;28;20211;-81
2021/09/14 07:56:15;;;;;;;3.73;2.10;;;17.70;99.90;;;;;;5057923;28;20462;-80
2021/09/14 07:58:41;;;;;;;3.50;2.43;;;17.70;99.90;;;;;;5056574;28;20200;-80
2021/09/14 08:01:07;;;;;;;2.67;2.13;;;17.60;99.90;;;;;;5048204;28;20255;-81
2021/09/14 08:03:33;;;;;;;3.43;2.00;;;17.80;99.90;;;;;;5048882;28;20171;-81
2021/09/14 08:05:58;;;;;;;2.83;1.87;;;17.40;99.90;;;;;;5031988;28;20199;-81
2021/09/14 08:08:24;;;;;;;3.30;2.30;;;17.40;99.90;;;;;;5051237;28;20785;-81
2021/09/14 08:10:49;;;;;;;4.30;2.03;;;17.60;99.90;;;;;;5052227;28;20185;-80
2021/09/14 08:13:15;;;;;;;5.83;2.80;;;17.60;99.90;;;;;;5052324;28;20238;-79
2021/09/14 08:15:40;;;;;;;5.80;2.13;;;17.70;99.90;;;;;;5036025;28;20209;-79
2021/09/14 08:18:06;;;;;;;3.90;3.03;;;17.70;99.90;;;;;;5050846;28;20296;-80
2021/09/14 08:20:31;;;;;;;3.53;2.30;;;17.80;99.90;;;;;;5054938;28;20599;-80
2021/09/14 08:22:57;;;;;;;2.07;1.60;;;17.90;99.90;;;;;;5045760;28;20180;-80
2021/09/14 08:25:23;;;;;;;4.20;2.23;;;17.70;99.90;;;;;;5049786;28;20205;-80
2021/09/14 08:27:48;;;;;;;3.00;2.07;;;17.60;99.90;;;;;;5048500;28;20191;-80
2021/09/14 08:30:14;;;;;;;2.60;1.33;;;17.80;99.90;;;;;;5049823;28;20183;-80
2021/09/14 08:32:40;;;;;;;5.23;2.53;;;17.80;99.90;;;;;;5035755;28;20174;-80
2021/09/14 08:35:06;;;;;;;3.33;2.17;;;18.00;99.90;;;;;;5043138;28;20187;-80
2021/09/14 08:37:31;;;;;;;2.60;2.00;;;18.10;99.90;;;;;;5043458;28;20430;-80
2021/09/14 08:39:57;;;;;;;2.20;1.90;;;18.10;99.90;;;;;;5043354;28;20180;-82
2021/09/14 08:42:22;;;;;;;1.87;1.67;;;18.20;99.90;;;;;;5044938;28;20173;-80
2021/09/14 08:44:50;;;;;;;4.73;2.20;;;18.40;99.90;;;;;;5040986;28;20200;-80
2021/09/14 08:47:15;;;;;;;3.23;2.80;;;18.40;99.90;;;;;;5035658;28;20551;-80
2021/09/14 08:49:41;;;;;;;1.90;1.80;;;18.40;99.90;;;;;;5041054;28;20426;-81
2021/09/14 08:52:10;;;;;;;6.50;2.40;;;18.40;99.90;;;;;;5039598;28;20196;-81
2021/09/14 08:54:35;;;;;;;2.60;2.20;;;18.20;99.90;;;;;;5047572;28;20438;-81
2021/09/14 08:57:01;;;;;;;6.20;2.60;;;18.10;99.90;;;;;;5035475;28;20435;-81
2021/09/14 08:59:32;;;;;;;4.30;3.00;;;18.10;99.90;;;;;;5022627;28;20235;-81
2021/09/14 09:02:08;;;;;;;6.90;2.20;;;18.20;99.90;;;;;;5041389;28;20190;-80
2021/09/14 09:04:34;;;;;;;3.40;2.30;;;18.40;99.90;;;;;;5044448;28;20950;-80
2021/09/14 09:07:00;;;;;;;3.07;1.80;;;18.50;99.90;;;;;;5034765;28;20502;-81
2021/09/14 09:09:26;;;;;;;3.13;2.17;;;18.60;99.90;;;;;;5047469;28;20525;-80
2021/09/14 09:12:06;;;;;;;6.70;2.17;;;18.40;99.90;;;;;;5055091;28;20655;-80
2021/09/14 09:14:32;;;;;;;4.00;2.47;;;18.50;99.90;;;;;;5042162;28;20453;-80
2021/09/14 09:17:13;;;;;;;4.23;2.20;;;18.30;99.90;;;;;;5035328;28;20414;-80
2021/09/14 09:19:40;;;;;;;6.03;2.90;;;18.40;99.90;;;;;;5041573;28;20205;-80
2021/09/14 09:22:11;;;;;;;3.20;2.40;;;18.60;99.90;;;;;;5038652;28;20445;-81
2021/09/14 09:24:48;;;;;;;5.23;2.60;;;18.60;99.90;;;;;;5045234;28;22343;-81
2021/09/14 09:27:16;;;;;;;2.37;1.80;;;18.50;99.90;;;;;;5038420;28;20433;-80
2021/09/14 09:29:41;;;;;;;3.80;2.57;;;18.40;99.90;;;;;;5055863;28;20410;-80
2021/09/14 09:32:07;;;;;;;2.50;2.27;;;18.50;99.90;;;;;;5053757;28;20429;-82
2021/09/14 09:34:33;;;;;;;2.70;2.10;;;18.40;99.90;;;;;;5039404;28;20499;-80
2021/09/14 09:37:06;;;;;;;2.00;1.80;;;18.40;99.90;;;;;;5041481;28;20416;-81
2021/09/14 09:39:53;;;;;;;3.50;1.83;;;18.30;99.90;;;;;;5042939;28;20203;-82
2021/09/14 09:42:20;;;;;;;2.23;2.03;;;18.50;99.90;;;;;;5049952;28;20425;-81
2021/09/14 09:44:57;;;;;;;5.90;3.10;;;18.50;99.90;;;;;;5031802;28;20524;-81
2021/09/14 09:47:24;;;;;;;3.67;2.23;;;18.60;99.90;;;;;;5035533;28;20752;-80
2021/09/14 09:49:50;;;;;;;3.53;2.47;;;18.70;99.90;;;;;;5045784;28;20419;-81
2021/09/14 09:52:17;;;;;;;2.10;1.77;;;18.80;99.90;;;;;;5050184;28;20507;-81
2021/09/14 09:54:45;;;;;;;3.97;2.40;;;18.70;99.90;;;;;;5038637;28;20434;-80
2021/09/14 09:57:12;;;;;;;5.50;2.30;;;18.50;99.90;;;;;;5050067;28;20937;-82
2021/09/14 09:59:38;;;;;;;4.00;2.47;;;18.60;99.90;;;;;;5053321;28;20876;-80
2021/09/14 10:02:16;;;;;;;3.47;2.83;;;18.70;99.90;;;;;;5036254;28;20420;-80
2021/09/14 10:04:46;;;;;;;3.27;2.53;;;18.90;99.90;;;;;;5038947;28;20515;-80
2021/09/14 10:07:13;;;;;;;2.50;2.30;;;19.00;99.90;;;;;;5057495;28;20410;-80
2021/09/14 10:09:59;;;;;;;2.03;1.83;;;18.90;99.90;;;;;;5053064;28;20419;-80
2021/09/14 10:12:30;;;;;;;2.83;2.13;;;18.70;99.90;;;;;;5040321;28;20429;-80
2021/09/14 10:14:56;;;;;;;7.30;3.10;;;18.70;99.90;;;;;;5040805;28;20819;-80
2021/09/14 10:17:22;;;;;;;3.10;2.77;;;18.90;99.90;;;;;;5048595;28;20922;-80
2021/09/14 10:19:47;;;;;;;3.80;2.73;;;19.10;99.90;;;;;;5041819;28;20489;-79
2021/09/14 10:22:25;;;;;;;3.17;2.67;;;19.20;99.90;;;;;;5051124;28;20597;-80
2021/09/14 10:24:52;;;;;;;4.57;2.87;;;19.20;99.90;;;;;;5022581;28;20550;-79
2021/09/14 10:27:18;;;;;;;4.20;2.90;;;19.40;99.90;;;;;;5039255;28;20489;-80
2021/09/14 10:29:54;;;;;;;4.00;3.23;;;19.50;99.90;;;;;;5043130;28;20440;-81
2021/09/14 10:32:37;;;;;;;3.57;3.00;;;19.60;99.90;;;;;;5048830;28;20178;-81
2021/09/14 10:35:04;;;;;;;4.47;2.80;;;19.60;99.90;;;;;;5055230;28;20459;-82
2021/09/14 10:37:31;;;;;;;3.00;2.20;;;19.70;99.90;;;;;;5040740;28;20459;-83
2021/09/14 10:40:10;;;;;;;4.90;3.40;;;19.60;99.90;;;;;;5036711;28;20801;-83
2021/09/14 10:42:43;;;;;;;3.87;3.20;;;19.70;99.90;;;;;;5020305;28;20449;-82
2021/09/14 10:45:16;;;;;;;4.90;2.67;;;19.70;99.90;;;;;;5034520;28;20432;-83
2021/09/14 10:47:48;;;;;;;3.47;2.23;;;19.70;99.90;;;;;;5039222;28;20521;-82
2021/09/14 10:50:32;;;;;;;4.10;2.30;;;19.80;99.90;;;;;;5027748;28;20428;-81
2021/09/14 10:53:00;;;;;;;3.77;2.40;;;19.60;99.90;;;;;;5056602;28;20409;-82
2021/09/14 10:55:27;;;;;;;2.13;1.93;;;19.50;99.90;;;;;;5058378;28;20430;-82
2021/09/14 10:57:58;;;;;;;4.00;2.53;;;19.50;99.90;;;;;;5057680;28;20451;-82
2021/09/14 11:00:33;;;;;;;2.77;2.23;;;19.50;99.90;;;;;;5055247;28;21036;-83
2021/09/14 11:03:10;;;;;;;2.40;2.13;;;19.20;99.90;;;;;;5039493;28;20412;-83
2021/09/14 11:05:37;;;;;;;4.37;3.17;;;19.30;99.90;;;;;;5020511;28;20978;-83
2021/09/14 11:08:07;;;;;;;3.30;2.60;;;19.40;99.90;;;;;;5036522;28;20504;-83
2021/09/14 11:10:35;;;;;;;4.40;2.80;;;19.40;99.90;;;;;;5050359;28;20993;-83
2021/09/14 11:13:02;;;;;;;3.17;2.57;;;19.30;99.90;;;;;;5055606;28;20871;-82
2021/09/14 11:15:27;;;;;;;3.63;2.80;;;19.40;99.90;;;;;;5040569;28;20539;-83
2021/09/14 11:17:53;;;;;;;2.93;2.27;;;19.50;99.90;;;;;;5039000;28;20475;-82
2021/09/14 11:20:21;;;;;;;3.00;2.70;;;19.50;99.90;;;;;;5055778;28;20735;-83
2021/09/14 11:22:50;;;;;;;5.47;3.30;;;19.60;99.90;;;;;;5056157;28;20158;-83
2021/09/14 11:25:26;;;;;;;2.83;2.63;;;19.70;99.90;;;;;;5044545;28;20436;-83
2021/09/14 11:27:59;;;;;;;3.53;2.67;;;19.80;99.90;;;;;;5038964;28;20420;-82
2021/09/14 11:30:25;;;;;;;4.00;3.03;;;19.80;99.90;;;;;;5055767;28;20486;-82
2021/09/14 11:32:56;;;;;;;3.67;3.37;;;19.60;99.90;;;;;;5053191;28;20429;-81
2021/09/14 11:35:26;;;;;;;4.40;2.67;;;19.60;99.90;;;;;;5067651;28;20454;-83
2021/09/14 11:38:10;;;;;;;4.47;3.00;;;19.90;99.90;;;;;;5041765;28;20465;-84
2021/09/14 11:40:44;;;;;;;3.57;3.27;;;20.00;99.90;;;;;;5017007;28;20510;-83
2021/09/14 11:43:15;;;;;;;4.33;3.60;;;20.00;99.90;;;;;;5033229;28;20426;-83
2021/09/14 11:45:41;;;;;;;3.90;2.60;;;20.00;99.90;;;;;;5038125;28;20461;-83
2021/09/14 11:48:25;;;;;;;8.57;3.50;;;20.00;99.90;;;;;;5021209;28;20427;-83
2021/09/14 11:51:11;;;;;;;4.00;3.10;;;19.80;99.90;;;;;;5019499;28;20409;-83
2021/09/14 11:53:38;;;;;;;4.47;2.80;;;19.80;99.90;;;;;;5012437;28;20976;-83
2021/09/14 11:56:12;;;;;;;5.70;3.10;;;19.90;99.90;;;;;;5017673;28;20496;-83
2021/09/14 11:58:41;;;;;;;5.67;2.77;;;19.90;99.90;;;;;;5015806;28;20461;-83
2021/09/14 12:01:08;;;;;;;3.27;2.97;;;20.00;99.90;;;;;;5018774;28;20461;-82
2021/09/14 12:03:54;;;;;;;5.77;2.80;;;20.10;99.90;;;;;;5016553;28;20418;-82
2021/09/14 12:06:29;;;;;;;3.00;2.60;;;20.20;99.90;;;;;;5015686;28;20485;-83
2021/09/14 12:09:01;;;;;;;3.50;2.40;;;20.20;99.90;;;;;;5017297;28;20441;-82
2021/09/14 12:11:32;;;;;;;4.90;3.00;;;20.20;99.90;;;;;;5017652;28;20779;-83
2021/09/14 12:14:03;;;;;;;3.67;3.27;;;20.00;99.90;;;;;;5027616;28;20429;-83
2021/09/14 12:16:32;;;;;;;3.10;2.77;;;19.90;99.90;;;;;;5021832;28;20458;-83
2021/09/14 12:18:59;;;;;;;2.60;2.40;;;20.00;99.90;;;;;;5012163;28;20552;-82
2021/09/14 12:21:26;;;;;;;4.33;3.20;;;19.90;99.90;;;;;;5035974;28;20430;-82
2021/09/14 12:23:53;;;;;;;3.83;3.10;;;19.90;99.90;;;;;;5035312;28;20453;-83
2021/09/14 12:26:37;;;;;;;3.73;3.33;;;19.90;99.90;;;;;;5016410;28;20496;-83
2021/09/14 12:29:07;;;;;;;2.87;2.47;;;19.90;99.90;;;;;;5017813;28;20433;-83
2021/09/14 12:31:33;;;;;;;2.70;2.43;;;19.90;99.90;;;;;;5030294;28;20417;-83
2021/09/14 12:33:59;;;;;;;3.10;2.80;;;20.00;99.90;;;;;;5026183;28;20998;-82
2021/09/14 12:36:25;;;;;;;3.73;3.37;;;20.10;99.90;;;;;;5020802;28;20471;-83
2021/09/14 12:38:51;;;;;;;3.60;3.00;;;20.20;99.90;;;;;;5024530;28;20565;-82
2021/09/14 12:41:18;;;;;;;3.20;2.90;;;20.40;99.90;;;;;;5034975;28;20422;-82
2021/09/14 12:43:45;;;;;;;3.50;2.87;;;20.30;99.90;;;;;;5037710;28;20795;-82
2021/09/14 12:46:11;;;;;;;3.33;3.03;;;20.20;99.90;;;;;;5026795;28;20508;-80
2021/09/14 12:48:37;;;;;;;3.13;2.63;;;20.20;99.90;;;;;;5014323;28;20435;-82
2021/09/14 12:51:11;;;;;;;4.87;2.80;;;20.40;99.90;;;;;;5016763;28;20425;-80
2021/09/14 12:53:37;;;;;;;4.20;2.57;;;20.30;99.90;;;;;;5014970;28;20200;-81
2021/09/14 12:56:04;;;;;;;4.13;3.17;;;20.30;99.90;;;;;;5035179;28;20472;-80
2021/09/14 12:58:30;;;;;;;6.20;3.27;;;20.50;99.90;;;;;;5021607;28;20216;-79
2021/09/14 13:00:55;;;;;;;5.00;3.10;;;20.60;99.90;;;;;;5027321;28;20918;-80
2021/09/14 13:03:21;;;;;;;3.13;2.67;;;20.70;99.90;;;;;;5028544;28;20435;-80
2021/09/14 13:05:47;;;;;;;4.30;3.63;;;20.50;99.90;;;;;;5025349;28;20201;-80
2021/09/14 13:08:12;;;;;;;3.83;3.03;;;20.40;99.90;;;;;;5034185;28;20185;-81
2021/09/14 13:10:38;;;;;;;4.30;3.47;;;20.50;99.90;;;;;;5016838;28;20684;-80
2021/09/14 13:18:35;;;;;;;5.30;3.03;;;20.60;99.90;;;;;;5017491;28;20455;-80
2021/09/14 13:21:02;;;;;;;4.07;3.47;;;20.60;99.90;;;;;;5017821;28;20412;-80
2021/09/14 13:23:29;;;;;;;6.83;2.70;;;20.50;99.90;;;;;;5033186;28;20194;-80
2021/09/14 13:25:58;;;;;;;4.33;3.53;;;20.40;99.90;;;;;;5016998;28;20514;-80
2021/09/14 13:28:24;;;;;;;3.63;3.33;;;20.40;99.90;;;;;;5017293;28;20412;-79
2021/09/14 13:30:50;;;;;;;3.43;3.07;;;20.40;99.90;;;;;;5016516;28;20895;-81
2021/09/14 13:33:15;;;;;;;3.77;3.17;;;20.30;99.90;;;;;;4983734;28;20522;-81
2021/09/14 13:35:41;;;;;;;7.13;2.57;;;20.30;99.90;;;;;;5021247;28;20224;-81
2021/09/14 13:38:07;;;;;;;3.90;3.10;;;20.20;99.90;;;;;;5019492;28;20200;-80
2021/09/14 13:40:33;;;;;;;3.90;3.50;;;20.40;99.90;;;;;;5020082;28;20174;-80
2021/09/14 13:43:00;;;;;;;4.43;3.53;;;20.40;99.90;;;;;;5016203;28;20184;-82
2021/09/14 13:48:12;;;;;;;4.03;3.50;;;20.50;99.90;;;;;;5019884;28;20441;-81
2021/09/14 13:50:40;;;;;;;3.83;3.17;;;20.50;99.90;;;;;;5017832;28;20934;-79